Ashaway, Rhode Island
Current Conditions -  °F | °C
As of 12:53 PM on Monday 26 Jan 2015 (Local Time) from KWST Reporting Station
Overcast Overcast  
Wind Chill: 13°   Ceiling: 4200
Heat Index: 24°   Visibility: 10mi
Dew Point: 18°   Wind: 12mph
Humidity: 77%   Direction: 40°NE
Pressure: 29.98"   Gusts: 20mph
Location:  41.43°N, 71.79°W
Report Text: KWST 261753Z AUTO 04010G17KT 10SM OVC042 M04/M08 A2998 RMK AO2 SNE20 SLP153 P0000 60000 T10441078 11044 21072 58032
Loading
Personal Weather Stations






























Interactive Weather Map New forecast layout! Learn more

10-Day Weather Forecast

Advertisements
Track Severe Weather on mobile